ADDS METAR Data INFO
IDs: Format: Raw Decoded Include TAF

Data at: 2009 UTC 19 Oct 2017

KASE 191953Z 34010KT 10SM CLR 21/M08 A3011 RMK AO2 SLP105 T02061078
KASE 191853Z 31006KT 10SM CLR 20/M08 A3015 RMK AO2 SLP117 T02001078
KASE 191753Z VRB04KT 9SM CLR 17/M08 A3019 RMK AO2 SLP134 T01671083 10167 21011 58010
KASE 191653Z 35006KT 10SM CLR 13/M08 A3021 RMK AO2 SLP151 T01281083
KASE 191553Z 33004KT 10SM CLR 11/M07 A3022 RMK AO2 SLP158 T01111072
KASE 191453Z 00000KT 10SM CLR 06/M06 A3023 RMK AO2 SLP171 T00611056 53001
KASE 191353Z 16008KT 10SM CLR 01/M08 A3022 RMK AO2 SLP181 T00111078
KASE 191253Z 20003KT 10SM CLR M01/M07 A3022 RMK AO2 SLP183 T10111072
KASE 191153Z AUTO 00000KT 10SM CLR 02/M07 A3022 RMK AO2 SLP160 T00221067 10044 20000 56007
KASE 191053Z AUTO 18007KT 10SM CLR 02/M08 A3023 RMK AO2 SLP149 T00221078
KASE 190953Z AUTO 18003KT 10SM CLR 02/M08 A3024 RMK AO2 SLP152 T00171083
KASE 190853Z AUTO 21005KT 10SM CLR 01/M08 A3025 RMK AO2 SLP157 T00061083 58007
KASE 190753Z AUTO 20004KT 10SM CLR 00/M09 A3026 RMK AO2 SLP163 T00001089
KASE 190653Z AUTO 00000KT 10SM CLR 02/M09 A3027 RMK AO2 SLP163 T00221094 402061017
KASE 190553Z AUTO 21010KT 10SM CLR 04/M10 A3028 RMK AO2 SLP169 T00441100 10150 20039 58006
KASE 190453Z AUTO 21009KT 10SM CLR 04/M10 A3029 RMK AO2 SLP186 T00441100
KASE 190353Z AUTO 20007KT 10SM CLR 06/M10 A3030 RMK AO2 SLP192 T00561100
KASE 190253Z AUTO VRB06KT 10SM CLR 07/M09 A3030 RMK AO2 SLP197 T00671094 50009
KASE 190153Z AUTO 21009KT 10SM CLR 08/M09 A3030 RMK AO2 SLP208 T00831094
KASE 190053Z 20008KT 10SM CLR 09/M09 A3029 RMK AO2 SLP209 T00941089
KASE 182353Z 00000KT 10SM CLR 14/M12 A3027 RMK AO2 SLP181 T01441117 10206 20139 55002
KASE 182253Z 33007KT 10SM CLR 18/M13 A3026 RMK AO2 SLP169 T01831128
KASE 182153Z 32009KT 10SM CLR 19/M16 A3027 RMK AO2 SLP167 T01941161
KASE 182053Z 36008KT 10SM CLR 21/M18 A3028 RMK AO2 SLP164 T02061178 56020
KASE 181953Z 01007KT 10SM CLR 20/M17 A3030 RMK AO2 SLP171 T02001167
KASE 181853Z COR 31005KT 10SM CLR 19/M15 A3033 RMK AO2 SLP189 T01891150
KASE 181753Z 29004KT 10SM CLR 16/M14 A3035 RMK AO2 SLP201 T01561144 10156 21017 50000
KASE 181653Z 35004KT 10SM CLR 11/M12 A3036 RMK AO2 SLP217 T01111122
KASE 181553Z 34007KT 10SM CLR 09/M09 A3036 RMK AO2 SLP219 T00891089
KASE 181453Z 00000KT 10SM CLR 06/M11 A3035 RMK AO2 SLP217 T00611111 53005
KASE 181353Z 21007KT 10SM CLR 01/M12 A3032 RMK AO2 SLP220 T00111117
KASE 181253Z 21005KT 10SM CLR M02/M11 A3031 RMK AO2 SLP223 T10171106
KASE 181153Z AUTO 19006KT 10SM CLR 00/M11 A3033 RMK AO2 SLP204 T00001111 10028 21017 53002
KASE 181053Z AUTO 21008KT 10SM CLR M01/M10 A3030 RMK AO2 SLP190 T10111100
KASE 180953Z AUTO 15005KT 10SM CLR M01/M10 A3031 RMK AO2 SLP186 T10061100
KASE 180853Z AUTO 19005KT 10SM CLR 00/M10 A3032 RMK AO2 SLP188 T00001100 56003